Latest Weather Observations for Mudgee

IDN60801

Issued at 9:03 am EST Saturday 5 September 2015 (issued every 30 minutes, with the page automatically refreshed every 10 minutes)

About weather observations | Map of weather stations | Latest weather observations for NSW | Other Formats
Station Details ID: 062101 Name: MUDGEE AIRPORT AWS Lat: -32.56 Lon: 149.61 Height: 471.0 m
Data from the previous 72 hours. | See also: Recent months at Mudgee
Date/Time
EST
Temp
°C
App
Temp
°C
Dew
Point
Rel
Hum
%
Delta-T
°C
Wind Press
QNH
hPa
Press
MSL
hPa
Rain
since 9 am
mm
Dir
 
Spd
km/h
Gust
km/h
Spd
kts
Gust
kts
05/08:30am 8.1 6.3 8.0 99 0.0 SSE 7 9 4 5 1023.5 1023.4 0.0
05/08:00am 8.0 6.4 7.9 99 0.0 ESE 6 9 3 5 1023.4 1023.3 0.0
05/07:30am 8.1 6.3 8.0 99 0.0 S 7 9 4 5 1023.1 1022.9 0.0
05/07:00am 8.3 6.7 8.2 99 0.0 S 6 7 3 4 1023.0 1022.8 0.0
05/06:30am 8.1 7.6 8.0 99 0.0 CALM 0 6 0 3 1022.7 1022.5 0.0
05/06:00am 7.9 7.0 7.8 99 0.0 S 2 6 1 3 1022.3 1022.1 0.0
05/05:30am 7.7 7.1 7.6 99 0.0 CALM 0 0 0 0 1022.1 1021.9 0.0
05/05:00am 7.6 6.3 7.5 99 0.0 SE 4 6 2 3 1021.7 1021.5 0.0
05/04:30am 7.2 5.8 7.1 99 0.0 S 4 6 2 3 1021.5 1021.4 0.0
05/04:00am 7.1 6.0 7.0 99 0.0 SSE 2 6 1 3 1021.4 1021.2 0.0
05/03:30am 6.8 6.0 6.7 99 0.0 CALM 0 0 0 0 1021.3 1021.1 0.0
05/03:00am 6.5 5.7 6.4 99 0.0 CALM 0 0 0 0 1021.4 1021.2 0.0
05/02:30am 6.0 3.9 5.9 99 0.0 SSW 6 9 3 5 1021.7 1021.5 0.0
05/02:00am 6.3 5.4 6.2 99 0.0 CALM 0 0 0 0 1022.0 1021.8 0.0
05/01:30am 6.0 3.9 5.9 99 0.0 SE 6 7 3 4 1022.0 1021.8 0.0
05/01:00am 5.6 3.4 5.5 99 0.0 S 6 9 3 5 1022.3 1022.1 0.0
05/12:30am 5.7 3.0 5.6 99 0.0 NE 9 11 5 6 1022.4 1022.2 0.0
05/12:00am 6.0 5.1 5.9 99 0.0 CALM 0 0 0 0 1022.6 1022.4 0.0
 
Date/Time
EST
Temp
°C
App
Temp
°C
Dew
Point
Rel
Hum
%
Delta-T
°C
Wind Press
QNH
hPa
Press
MSL
hPa
Rain
since 9 am
mm
Dir
 
Spd
km/h
Gust
km/h
Spd
kts
Gust
kts
04/11:41pm 5.6 3.8 5.3 98 0.1 NE 4 6 2 3 1022.6 1022.4 0.0
04/11:30pm 5.7 4.7 5.4 98 0.1 CALM 0 0 0 0 1022.6 1022.4 0.0
04/11:00pm 5.8 3.1 5.5 98 0.1 NNE 9 9 5 5 1022.7 1022.5 0.0
04/10:30pm 7.0 4.9 6.7 98 0.1 NE 7 9 4 5 1022.8 1022.6 0.0
04/10:00pm 7.5 6.9 7.2 98 0.1 CALM 0 0 0 0 1022.9 1022.7 0.0
04/09:30pm 8.4 8.0 8.1 98 0.1 CALM 0 0 0 0 1022.7 1022.5 0.0
04/09:00pm 9.1 8.5 8.8 98 0.1 SE 2 7 1 4 1022.6 1022.4 0.0
04/08:30pm 9.5 9.3 9.2 98 0.2 CALM 0 7 0 4 1022.5 1022.3 0.0
04/08:00pm 11.2 9.0 10.9 98 0.2 NE 13 17 7 9 1022.3 1022.1 0.0
04/07:30pm 12.1 9.4 10.3 89 0.9 NE 15 17 8 9 1022.0 1021.8 0.0
04/07:00pm 11.6 9.7 9.0 84 1.3 NNE 9 13 5 7 1021.9 1021.7 0.0
04/06:30pm 11.7 9.7 8.7 82 1.5 N 9 11 5 6 1021.5 1021.4 0.0
04/06:00pm 13.3 10.8 8.2 71 2.6 N 11 13 6 7 1021.3 1021.1 0.0
04/05:30pm 15.1 13.5 8.8 66 3.3 NW 7 13 4 7 1021.2 1021.0 0.0
04/05:00pm 15.5 13.2 9.0 65 3.4 WNW 11 13 6 7 1021.1 1020.9 0.0
04/04:30pm 15.6 13.2 8.8 64 3.6 NW 11 15 6 8 1021.0 1020.8 0.0
04/04:00pm 16.7 14.0 8.9 60 4.1 NW 13 17 7 9 1020.8 1020.6 0.0
04/03:30pm 17.0 15.4 8.7 58 4.4 NE 7 13 4 7 1020.8 1020.6 0.0
04/03:00pm 16.4 14.5 9.1 62 3.8 NE 9 15 5 8 1020.9 1020.7 0.0
04/02:30pm 15.9 14.4 8.4 61 3.9 NE 6 9 3 5 1021.1 1020.9 0.0
04/02:00pm 15.6 13.9 8.4 62 3.7 SSE 7 13 4 7 1021.2 1021.0 0.0
04/01:30pm 15.4 12.6 8.6 64 3.5 SSW 13 17 7 9 1021.3 1021.1 0.0
04/01:00pm 15.4 12.0 9.1 66 3.3 SSW 17 26 9 14 1021.5 1021.4 0.0
04/12:30pm 15.3 12.2 8.8 65 3.4 S 15 22 8 12 1021.5 1021.4 0.0
04/12:00pm 14.7 12.8 8.9 68 3.0 S 9 15 5 8 1022.1 1021.9 0.0
04/11:30am 14.0 12.8 8.2 68 3.0 SSE 4 7 2 4 1022.3 1022.1 0.0
04/11:00am 13.7 12.0 8.3 70 2.8 SSW 7 13 4 7 1022.5 1022.3 0.0
04/10:30am 12.9 10.9 8.6 75 2.2 SW 9 13 5 7 1022.7 1022.5 0.0
04/10:00am 12.1 11.0 10.7 91 0.7 S 7 9 4 5 1022.5 1022.3 0.0
04/09:30am 9.5 8.2 9.2 98 0.2 S 6 7 3 4 1022.8 1022.6 0.0
04/09:00am 8.0 6.3 7.7 98 0.1 SSE 6 7 3 4 1022.8 1022.6 0.6
04/08:30am 7.5 6.9 7.4 99 0.0 CALM 0 0 0 0 1022.7 1022.5 0.6
04/08:00am 6.4 4.2 6.3 99 0.0 ENE 7 9 4 5 1022.4 1022.2 0.6
04/07:30am 4.5 1.9 4.4 99 0.0 ENE 7 9 4 5 1022.1 1021.9 0.6
04/07:00am 3.5 0.9 3.4 99 0.0 NE 6 7 3 4 1021.3 1021.1 0.6
04/06:30am 3.0 -1.0 2.7 98 0.1 NNE 13 15 7 8 1020.4 1020.2 0.6
04/06:00am 2.7 -1.4 2.4 98 0.1 NNE 13 15 7 8 1020.0 1019.8 0.6
04/05:30am 3.0 -0.6 2.7 98 0.1 NE 11 13 6 7 1019.6 1019.3 0.6
04/05:00am 3.0 0.1 2.7 98 0.1 NE 7 9 4 5 1018.8 1018.6 0.6
04/04:30am 3.8 0.7 3.5 98 0.1 NE 9 13 5 7 1018.8 1018.6 0.6
04/04:00am 4.0 0.9 3.7 98 0.1 NNE 9 15 5 8 1018.4 1018.2 0.6
04/03:30am 4.4 1.4 4.1 98 0.1 NE 9 9 5 5 1018.2 1018.0 0.6
04/03:00am 5.0 2.1 4.7 98 0.1 NNE 9 9 5 5 1018.2 1018.0 0.6
04/02:30am 6.6 4.4 6.3 98 0.1 SSW 7 9 4 5 1018.2 1018.0 0.6
04/02:00am 6.6 3.7 6.3 98 0.1 WNW 11 15 6 8 1018.3 1018.1 0.6
04/01:30am 6.9 3.6 6.6 98 0.1 NW 13 15 7 8 1018.3 1018.1 0.6
04/01:00am 6.4 3.8 6.1 98 0.1 WNW 9 11 5 6 1018.0 1017.8 0.6
04/12:30am 6.1 5.1 5.8 98 0.1 CALM 0 0 0 0 1017.9 1017.7 0.6
04/12:00am 6.7 5.5 6.3 97 0.2 NNW 2 6 1 3 1017.6 1017.3 0.6
 
Date/Time
EST
Temp
°C
App
Temp
°C
Dew
Point
Rel
Hum
%
Delta-T
°C
Wind Press
QNH
hPa
Press
MSL
hPa
Rain
since 9 am
mm
Dir
 
Spd
km/h
Gust
km/h
Spd
kts
Gust
kts
03/11:30pm 6.7 5.9 6.3 97 0.2 CALM 0 0 0 0 1017.5 1017.2 0.6
03/11:00pm 6.2 3.4 5.0 92 0.5 WNW 9 9 5 5 1017.9 1017.7 0.6
03/10:30pm 7.8 5.3 4.9 82 1.3 S 7 13 4 7 1017.6 1017.3 0.6
03/10:00pm 8.0 5.0 5.8 86 1.0 SW 11 17 6 9 1017.2 1016.9 0.6
03/09:30pm 8.9 4.8 6.0 82 1.4 SW 17 22 9 12 1016.7 1016.5 0.6
03/09:00pm 9.3 5.2 6.4 82 1.4 SW 17 24 9 13 1016.2 1016.0 0.6
03/08:30pm 9.2 5.7 7.0 86 1.1 WSW 15 19 8 10 1015.8 1015.5 0.6
03/08:00pm 9.4 6.2 7.0 85 1.2 WSW 13 20 7 11 1015.6 1015.3 0.6
03/07:30pm 9.5 6.4 7.3 86 1.1 W 13 17 7 9 1015.0 1014.7 0.6
03/07:00pm 8.8 6.5 7.4 91 0.7 NW 9 11 5 6 1014.5 1014.3 0.6
03/06:30pm 9.8 7.0 6.9 82 1.4 WSW 11 19 6 10 1013.7 1013.4 0.6
03/06:00pm 10.0 7.2 7.1 82 1.4 W 11 17 6 9 1013.1 1012.8 0.6
03/05:30pm 10.4 7.0 7.6 83 1.4 W 15 19 8 10 1012.5 1012.3 0.6
03/05:00pm 10.6 7.8 8.4 86 1.1 WNW 13 19 7 10 1011.9 1011.6 0.6
03/04:30pm 10.4 7.9 8.2 86 1.1 W 11 15 6 8 1011.3 1011.0 0.6
03/04:00pm 9.9 5.7 8.2 89 0.8 W 20 33 11 18 1011.0 1010.7 0.6
03/03:30pm 12.2 7.9 7.9 75 2.2 WNW 20 26 11 14 1010.4 1010.0 0.0
03/03:00pm 12.3 8.0 7.2 71 2.5 W 19 28 10 15 1009.9 1009.6 0.0
03/02:50pm 12.4 7.5 8.3 76 2.1 W 24 35 13 19 1009.8 1009.5 0.0
03/02:30pm 11.7 8.1 8.2 79 1.8 WNW 17 24 9 13 1009.8 1009.5 0.0
03/02:28pm 12.1 8.8 9.5 84 1.3 WNW 17 24 9 13 1009.7 1009.4 0.0
03/02:12pm 11.3 7.4 9.4 88 1.0 W 20 30 11 16 1009.7 1009.4 0.0
03/02:00pm 10.9 6.7 8.1 83 1.4 W 20 26 11 14 1009.6 1009.3 0.0
03/01:53pm 11.5 6.8 7.6 77 1.9 WNW 22 28 12 15 1009.5 1009.2 0.0
03/01:30pm 11.7 6.9 7.4 75 2.1 NW 22 30 12 16 1009.5 1009.2 0.0
03/01:00pm 11.8 7.1 7.9 77 2.0 WNW 22 32 12 17 1009.6 1009.3 0.0
03/12:30pm 11.0 6.8 8.4 84 1.3 WNW 20 28 11 15 1009.9 1009.6 0.0
03/12:00pm 10.9 6.5 7.4 79 1.7 WNW 20 28 11 15 1010.2 1009.9 0.0
03/11:30am 10.6 4.9 6.9 78 1.8 WNW 26 35 14 19 1010.2 1009.9 0.0
03/11:27am 10.7 5.4 6.8 77 1.9 WNW 24 32 13 17 1010.2 1009.9 0.0
03/11:01am 11.3 6.9 7.2 76 2.0 WNW 20 30 11 16 1010.0 1009.7 0.0
03/11:00am 11.4 7.0 7.5 77 1.9 WNW 20 28 11 15 1010.0 1009.7 0.0
03/10:42am 11.8 7.6 8.1 78 1.9 NW 20 28 11 15 1009.9 1009.6 0.0
03/10:32am 11.4 6.8 8.3 81 1.6 NNW 22 32 12 17 1009.8 1009.5 0.0
03/10:30am 11.4 6.9 8.4 82 1.5 NNW 22 32 12 17 1009.9 1009.6 0.0
03/10:00am 11.4 7.3 7.7 78 1.8 NNW 19 24 10 13 1009.8 1009.5 0.0
03/09:30am 11.1 7.0 8.0 81 1.5 NNW 19 26 10 14 1009.5 1009.2 0.0
03/09:00am 10.2 6.5 8.0 86 1.1 NNW 17 20 9 11 1009.4 1009.1 1.4
03/08:30am 9.8 6.4 9.3 97 0.3 NNW 17 20 9 11 1009.1 1008.8 1.4
03/08:00am 8.5 4.5 8.2 98 0.1 NNW 19 22 10 12 1008.8 1008.5 1.4
03/07:30am 8.9 5.7 8.6 98 0.1 NNW 15 17 8 9 1008.2 1007.8 1.4
03/07:00am 7.8 5.1 7.5 98 0.1 N 11 13 6 7 1008.2 1007.8 1.4
03/06:30am 7.8 5.9 7.4 97 0.2 N 7 9 4 5 1007.8 1007.5 1.4
03/06:00am 7.9 5.6 7.5 97 0.2 N 9 11 5 6 1007.5 1007.2 1.4
03/05:30am 8.3 5.9 6.9 91 0.7 N 9 9 5 5 1007.0 1006.7 1.4
03/05:00am 9.3 6.5 6.9 85 1.2 WNW 11 17 6 9 1006.9 1006.5 1.4
03/04:30am 10.7 6.5 8.3 85 1.2 WNW 20 32 11 17 1007.0 1006.7 1.4
03/04:09am 10.2 7.2 9.3 94 0.5 NNW 15 20 8 11 1006.7 1006.3 1.4
03/04:00am 10.7 7.8 9.5 92 0.6 NNW 15 20 8 11 1006.7 1006.3 1.4
03/03:30am 11.7 8.2 10.3 91 0.7 NW 19 26 10 14 1006.5 1006.1 1.4
03/03:00am 12.2 9.3 11.1 93 0.6 NW 17 26 9 14 1006.3 1005.9 1.4
03/02:39am 11.3 9.5 11.0 98 0.2 N 11 17 6 9 1006.2 1005.8 1.4
03/02:30am 10.5 8.9 10.2 98 0.2 N 9 13 5 7 1006.2 1005.8 1.4
03/02:00am 11.4 10.4 10.9 97 0.3 NW 7 9 4 5 1006.6 1006.2 1.4
03/01:30am 12.5 10.7 12.0 97 0.3 NNW 13 17 7 9 1007.2 1006.9 1.4
03/01:12am 12.5 10.6 11.9 96 0.3 N 13 19 7 10 1007.6 1007.3 1.4
03/01:00am 12.5 10.9 11.7 95 0.4 N 11 19 6 10 1007.9 1007.6 1.4
03/12:30am 12.5 10.7 10.7 89 1.0 NW 11 20 6 11 1008.3 1007.9 1.4
03/12:17am 12.7 9.7 10.6 87 1.1 N 17 26 9 14 1008.3 1007.9 1.4
03/12:00am 12.4 9.4 9.2 81 1.7 NE 15 24 8 13 1008.4 1008.0 1.4
 
Date/Time
EST
Temp
°C
App
Temp
°C
Dew
Point
Rel
Hum
%
Delta-T
°C
Wind Press
QNH
hPa
Press
MSL
hPa
Rain
since 9 am
mm
Dir
 
Spd
km/h
Gust
km/h
Spd
kts
Gust
kts
02/11:30pm 11.3 9.9 9.6 89 0.9 S 7 11 4 6 1008.4 1008.0 1.4
02/11:00pm 11.0 9.6 9.6 91 0.7 NE 7 11 4 6 1009.0 1008.7 1.4
02/10:30pm 11.0 9.0 8.6 85 1.2 NE 9 15 5 8 1009.5 1009.2 1.0
02/10:00pm 11.9 9.5 7.2 73 2.3 ESE 9 13 5 7 1008.9 1008.6 1.0
02/09:30pm 14.1 11.0 5.7 57 4.1 W 11 15 6 8 1009.8 1009.5 0.6
02/09:00pm 15.0 12.6 4.1 48 5.2 E 6 7 3 4 1008.5 1008.1 0.6
02/08:30pm 15.0 11.3 4.4 49 5.0 ENE 13 19 7 10 1009.3 1009.0 0.6
02/08:00pm 14.9 11.7 5.1 52 4.7 ENE 11 17 6 9 1009.7 1009.4 0.6
02/07:30pm 13.7 10.5 6.8 63 3.4 NE 13 17 7 9 1010.5 1010.1 0.6
02/07:00pm 13.5 10.2 6.6 63 3.4 NE 13 17 7 9 1010.7 1010.4 0.6
02/06:30pm 14.5 11.2 6.6 59 3.9 NE 13 17 7 9 1010.8 1010.5 0.6
02/06:00pm 15.9 12.5 5.8 51 5.0 ENE 13 19 7 10 1010.8 1010.5 0.6
02/05:30pm 16.2 13.3 4.6 46 5.6 ENE 9 15 5 8 1011.0 1010.7 0.6
02/05:00pm 16.2 12.5 4.3 45 5.7 N 13 19 7 10 1011.1 1010.8 0.6
02/04:30pm 17.1 13.1 4.8 44 6.0 N 15 20 8 11 1011.7 1011.4 0.6
02/04:00pm 17.8 12.7 4.0 40 6.7 NNW 20 28 11 15 1011.9 1011.6 0.6
02/03:30pm 17.8 12.1 2.9 37 7.0 NNW 22 28 12 15 1012.1 1011.8 0.6
02/03:00pm 18.3 13.6 5.2 42 6.5 NNW 19 24 10 13 1012.2 1011.9 0.6
02/02:30pm 17.4 12.3 4.0 41 6.4 NNW 20 28 11 15 1012.9 1012.6 0.6
02/02:00pm 17.0 11.8 3.7 41 6.3 NNW 20 26 11 14 1013.4 1013.1 0.6
02/01:30pm 17.3 15.3 6.2 48 5.6 WSW 6 11 3 6 1013.5 1013.2 0.4
02/01:00pm 15.2 12.9 4.9 50 5.0 NW 6 11 3 6 1014.4 1014.2 0.2
02/12:30pm 15.0 12.6 5.2 52 4.7 SW 7 9 4 5 1015.2 1014.9 0.2
02/12:00pm 14.1 12.1 4.4 52 4.6 NW 4 7 2 4 1015.9 1015.6 0.0
02/11:30am 12.9 11.2 6.0 63 3.3 S 4 9 2 5 1016.4 1016.2 0.0
02/11:00am 11.5 9.3 6.2 70 2.6 S 7 11 4 6 1017.3 1017.0 0.0
02/10:30am 9.6 7.3 5.6 76 1.9 S 7 11 4 6 1017.8 1017.5 0.0
02/10:00am 8.1 5.8 5.7 85 1.1 S 7 9 4 5 1018.1 1017.9 0.0
02/09:30am 6.8 4.7 5.7 93 0.5 S 6 9 3 5 1018.7 1018.5 0.0

Other Formats:

Comma delimited format used in spreadsheet applications
http://www.bom.gov.au/fwo/IDN60801/IDN60801.94727.axf

JavaScript Object Notation format (JSON) in row-major order
http://www.bom.gov.au/fwo/IDN60801/IDN60801.94727.json